createdAt,value
2022-11-05T00:00:08.587Z,14.40
2022-11-05T00:02:29.206Z,14.43
2022-11-05T00:04:49.853Z,13.60
2022-11-05T00:07:10.365Z,15.47
2022-11-05T00:09:33.231Z,14.43
2022-11-05T00:11:54.661Z,14.13
2022-11-05T00:14:14.827Z,14.60
2022-11-05T00:16:34.856Z,14.60
2022-11-05T00:18:38.058Z,14.33
2022-11-05T00:20:40.946Z,15.30
2022-11-05T00:23:01.400Z,15.37
2022-11-05T00:25:14.607Z,13.67
2022-11-05T00:27:17.561Z,14.93
2022-11-05T00:29:21.267Z,15.63
2022-11-05T00:31:24.330Z,14.43
2022-11-05T00:33:27.378Z,13.57
2022-11-05T00:35:30.533Z,13.40
2022-11-05T00:37:33.593Z,14.37
2022-11-05T00:39:36.581Z,15.47
2022-11-05T00:41:40.972Z,17.17
2022-11-05T00:44:01.879Z,15.23
2022-11-05T00:46:04.999Z,14.17
2022-11-05T00:48:25.883Z,16.30
2022-11-05T00:50:29.669Z,15.57
2022-11-05T00:52:49.875Z,13.50
2022-11-05T00:54:52.822Z,13.93
2022-11-05T00:57:01.951Z,12.87
2022-11-05T00:59:07.433Z,14.20
2022-11-05T01:01:11.543Z,14.00
2022-11-05T01:03:16.375Z,12.40
2022-11-05T01:05:19.465Z,13.87
2022-11-05T01:07:22.431Z,14.00
2022-11-05T01:09:26.424Z,13.90
2022-11-05T01:11:35.244Z,13.17
2022-11-05T01:13:43.280Z,13.93
2022-11-05T01:15:46.878Z,13.17
2022-11-05T01:17:50.208Z,13.30
2022-11-05T01:19:53.184Z,14.20
2022-11-05T01:21:56.121Z,12.93
2022-11-05T01:23:59.042Z,15.43
2022-11-05T01:26:01.923Z,14.43
2022-11-05T01:28:05.285Z,13.27
2022-11-05T01:30:10.953Z,15.47
2022-11-05T01:32:13.871Z,14.80
2022-11-05T01:34:16.900Z,15.67
2022-11-05T01:36:20.000Z,16.20
2022-11-05T01:38:22.929Z,15.07
2022-11-05T01:40:26.033Z,15.70
2022-11-05T01:42:29.644Z,17.10
2022-11-05T01:44:53.854Z,15.27
2022-11-05T01:46:58.172Z,15.30
2022-11-05T01:49:06.573Z,15.40
2022-11-05T01:51:12.978Z,13.40
2022-11-05T01:53:21.700Z,13.00
2022-11-05T01:55:27.097Z,13.80
2022-11-05T01:57:30.463Z,14.23
2022-11-05T01:59:36.667Z,14.07
2022-11-05T02:01:39.773Z,15.30
2022-11-05T02:03:44.662Z,15.07
2022-11-05T02:05:49.095Z,14.07
2022-11-05T02:07:52.485Z,14.50
2022-11-05T02:09:58.474Z,14.83
2022-11-05T02:12:01.441Z,13.80
2022-11-05T02:14:05.316Z,13.43
2022-11-05T02:16:14.343Z,12.90
2022-11-05T02:18:23.861Z,15.40
2022-11-05T02:20:34.631Z,11.70
2022-11-05T02:23:00.963Z,12.90
2022-11-05T02:25:27.483Z,11.87
2022-11-05T02:27:55.728Z,11.70
2022-11-05T02:30:07.777Z,11.03
2022-11-05T02:32:19.287Z,12.43
2022-11-05T02:34:27.267Z,12.80
2022-11-05T02:36:37.783Z,11.50
2022-11-05T02:38:43.799Z,12.03
2022-11-05T02:40:51.303Z,12.77
2022-11-05T02:42:59.404Z,13.00
2022-11-05T02:45:07.213Z,13.50
2022-11-05T02:47:18.266Z,12.53
2022-11-05T02:49:29.284Z,12.30
2022-11-05T02:51:35.446Z,13.30
2022-11-05T02:53:42.928Z,12.40
2022-11-05T02:55:48.934Z,14.13
2022-11-05T02:57:51.824Z,13.80
2022-11-05T03:00:02.060Z,13.13
2022-11-05T03:02:05.511Z,13.63
2022-11-05T03:04:12.245Z,14.57
2022-11-05T03:06:41.182Z,14.37
2022-11-05T03:09:05.753Z,13.30
2022-11-05T03:11:13.422Z,13.43
2022-11-05T03:13:20.426Z,12.50
2022-11-05T03:15:33.101Z,13.20
2022-11-05T03:17:42.369Z,13.03
2022-11-05T03:19:50.334Z,13.47
2022-11-05T03:21:55.153Z,13.67
2022-11-05T03:24:00.423Z,13.70
2022-11-05T03:26:07.424Z,13.93
2022-11-05T03:28:11.782Z,12.90
2022-11-05T03:30:16.208Z,13.10
2022-11-05T03:32:22.464Z,14.67
2022-11-05T03:34:28.825Z,13.80
2022-11-05T03:36:37.705Z,14.30
2022-11-05T03:38:42.174Z,13.67
2022-11-05T03:40:46.943Z,14.17
2022-11-05T03:42:51.740Z,14.10
2022-11-05T03:44:58.624Z,13.40
2022-11-05T03:47:04.269Z,13.43
2022-11-05T03:49:09.661Z,13.87
2022-11-05T03:51:17.354Z,13.50
2022-11-05T03:53:25.436Z,13.87
2022-11-05T03:55:34.010Z,14.17
2022-11-05T03:57:39.779Z,14.00
2022-11-05T03:59:44.255Z,13.50
2022-11-05T04:01:48.524Z,12.43
2022-11-05T04:03:51.523Z,12.50
2022-11-05T04:08:45.802Z,12.60
2022-11-05T04:11:06.496Z,12.20
2022-11-05T04:13:25.988Z,12.03
2022-11-05T04:15:29.773Z,12.77
2022-11-05T04:17:31.750Z,12.73
2022-11-05T04:19:52.566Z,11.03
2022-11-05T04:22:12.787Z,12.20
2022-11-05T04:24:17.773Z,12.20
2022-11-05T04:26:23.296Z,11.37
2022-11-05T04:28:46.463Z,12.00
2022-11-05T04:30:48.609Z,12.30
2022-11-05T04:33:03.294Z,12.70
2022-11-05T04:35:06.795Z,13.47
2022-11-05T04:37:09.675Z,13.20
2022-11-05T04:39:12.596Z,14.03
2022-11-05T04:41:18.159Z,13.40
2022-11-05T04:43:21.592Z,13.83
2022-11-05T04:45:25.303Z,13.70
2022-11-05T04:47:28.571Z,13.90
2022-11-05T04:49:31.550Z,16.60
2022-11-05T04:51:34.650Z,14.67
2022-11-05T04:53:37.851Z,13.83
2022-11-05T04:55:40.782Z,13.67
2022-11-05T04:57:45.233Z,14.73
2022-11-05T04:59:49.485Z,12.80
2022-11-05T05:01:52.925Z,13.43
2022-11-05T05:03:56.136Z,12.80
2022-11-05T05:06:03.757Z,12.70
2022-11-05T05:08:07.265Z,12.73
2022-11-05T05:10:11.114Z,11.80
2022-11-05T05:12:14.044Z,13.03
2022-11-05T05:14:18.492Z,13.30
2022-11-05T05:16:22.948Z,13.70
2022-11-05T05:18:26.922Z,13.40
2022-11-05T05:20:47.395Z,14.17
2022-11-05T05:22:53.884Z,13.27
2022-11-05T05:24:56.846Z,14.70
2022-11-05T05:26:59.737Z,14.27
2022-11-05T05:29:02.803Z,15.10
2022-11-05T05:31:07.295Z,14.17
2022-11-05T05:33:10.950Z,15.90
2022-11-05T05:35:14.088Z,17.50
2022-11-05T05:37:17.105Z,15.87
2022-11-05T05:39:20.183Z,14.97
2022-11-05T05:41:23.388Z,14.90
2022-11-05T05:43:26.512Z,14.50
2022-11-05T05:45:29.390Z,15.70
2022-11-05T05:47:34.006Z,17.57
2022-11-05T05:49:37.075Z,19.20
2022-11-05T05:51:40.217Z,19.23
2022-11-05T05:53:43.295Z,17.53
2022-11-05T05:55:46.231Z,20.20
2022-11-05T05:57:49.373Z,19.30
2022-11-05T05:59:52.336Z,20.50
2022-11-05T06:01:55.344Z,20.30
2022-11-05T06:03:59.883Z,21.50
2022-11-05T06:06:03.739Z,22.90
2022-11-05T06:08:07.246Z,23.20
2022-11-05T06:10:10.888Z,23.27
2022-11-05T06:12:14.039Z,23.97
2022-11-05T06:14:17.056Z,22.40
2022-11-05T06:16:21.435Z,23.50
2022-11-05T06:18:24.410Z,26.30
2022-11-05T06:20:28.721Z,25.50
2022-11-05T06:22:31.745Z,23.17
2022-11-05T06:24:34.886Z,24.40
2022-11-05T06:26:42.717Z,25.03
2022-11-05T06:28:46.002Z,24.23
2022-11-05T06:30:51.942Z,26.40
2022-11-05T06:32:55.262Z,24.80
2022-11-05T06:34:58.272Z,22.97
2022-11-05T06:37:02.917Z,23.70
2022-11-05T06:39:05.862Z,25.90
2022-11-05T06:41:10.230Z,23.17
2022-11-05T06:43:14.153Z,23.93
2022-11-05T06:45:17.401Z,23.70
2022-11-05T06:47:20.832Z,25.30
2022-11-05T06:49:24.626Z,24.90
2022-11-05T06:51:27.496Z,24.90
2022-11-05T06:53:32.468Z,23.13
2022-11-05T06:55:35.537Z,24.07
2022-11-05T06:57:39.273Z,23.47
2022-11-05T06:59:42.704Z,24.50
2022-11-05T07:01:45.700Z,22.03
2022-11-05T07:03:49.670Z,23.70
2022-11-05T07:05:54.634Z,22.43
2022-11-05T07:07:57.565Z,22.83
2022-11-05T07:10:02.042Z,22.67
2022-11-05T07:12:05.265Z,21.70
2022-11-05T07:14:08.772Z,21.37
2022-11-05T07:16:12.404Z,20.40
2022-11-05T07:18:15.581Z,21.30
2022-11-05T07:20:18.747Z,20.50
2022-11-05T07:22:21.783Z,21.10
2022-11-05T07:24:24.659Z,20.60
2022-11-05T07:26:34.258Z,21.60
2022-11-05T07:28:37.695Z,20.97
2022-11-05T07:30:40.981Z,19.10
2022-11-05T07:32:43.918Z,20.20
2022-11-05T07:34:46.853Z,20.67
2022-11-05T07:36:49.937Z,19.70
2022-11-05T07:39:16.046Z,19.30
2022-11-05T07:41:18.906Z,18.50
2022-11-05T07:43:23.219Z,18.67
2022-11-05T07:45:27.489Z,19.17
2022-11-05T07:47:32.160Z,19.03
2022-11-05T07:49:35.000Z,17.17
2022-11-05T07:51:37.978Z,16.37
2022-11-05T07:53:45.052Z,16.80
2022-11-05T07:55:48.763Z,17.10
2022-11-05T07:57:54.891Z,15.60
2022-11-05T07:59:59.149Z,17.27
2022-11-05T08:02:02.346Z,15.60
2022-11-05T08:04:05.862Z,16.43
2022-11-05T08:06:08.807Z,17.60
2022-11-05T08:08:13.182Z,16.77
2022-11-05T08:10:16.424Z,16.63
2022-11-05T08:12:21.116Z,16.60
2022-11-05T08:14:24.164Z,16.77
2022-11-05T08:16:28.405Z,16.87
2022-11-05T08:18:32.403Z,17.10
2022-11-05T08:20:35.951Z,16.60
2022-11-05T08:22:43.878Z,17.13
2022-11-05T08:24:46.771Z,15.37
2022-11-05T08:26:49.695Z,17.60
2022-11-05T08:28:52.652Z,17.07
2022-11-05T08:30:57.032Z,16.50
2022-11-05T08:33:02.808Z,16.43
2022-11-05T08:35:06.607Z,14.63
2022-11-05T08:37:09.521Z,14.97
2022-11-05T08:39:16.836Z,15.40
2022-11-05T08:41:20.136Z,15.90
2022-11-05T08:43:23.445Z,14.80
2022-11-05T08:45:26.598Z,14.00
2022-11-05T08:47:30.436Z,15.33
2022-11-05T08:49:34.880Z,14.20
2022-11-05T08:51:37.766Z,14.40
2022-11-05T08:53:40.737Z,15.40
2022-11-05T08:55:47.529Z,13.90
2022-11-05T08:57:56.599Z,13.70
2022-11-05T08:59:59.544Z,13.07
2022-11-05T09:02:02.479Z,13.30
2022-11-05T09:04:06.235Z,13.80
2022-11-05T09:06:13.196Z,12.80
2022-11-05T09:08:17.732Z,14.20
2022-11-05T09:10:20.767Z,12.80
2022-11-05T09:12:23.895Z,13.43
2022-11-05T09:14:27.552Z,13.50
2022-11-05T09:16:34.164Z,14.10
2022-11-05T09:18:38.934Z,11.83
2022-11-05T09:20:42.255Z,12.67
2022-11-05T09:22:47.420Z,12.50
2022-11-05T09:24:50.309Z,12.10
2022-11-05T09:26:53.390Z,11.73
2022-11-05T09:28:56.815Z,9.63
2022-11-05T09:31:00.574Z,10.17
2022-11-05T09:33:03.456Z,10.03
2022-11-05T09:35:07.363Z,8.10
2022-11-05T09:37:11.372Z,8.37
2022-11-05T09:39:15.757Z,9.03
2022-11-05T09:41:24.676Z,8.53
2022-11-05T09:43:32.727Z,9.17
2022-11-05T09:45:37.370Z,8.70
2022-11-05T09:47:43.268Z,9.03
2022-11-05T09:49:50.277Z,7.90
2022-11-05T09:51:54.754Z,7.83
2022-11-05T09:53:59.750Z,7.33
2022-11-05T09:56:06.413Z,8.07
2022-11-05T09:58:16.258Z,7.17
2022-11-05T10:00:20.986Z,7.80
2022-11-05T10:02:26.724Z,8.80
2022-11-05T10:04:31.319Z,7.40
2022-11-05T10:06:35.241Z,7.27
2022-11-05T10:08:42.804Z,9.37
2022-11-05T10:10:56.176Z,8.37
2022-11-05T10:13:04.267Z,8.00
2022-11-05T10:15:13.896Z,8.43
2022-11-05T10:17:22.331Z,8.17
2022-11-05T10:19:27.736Z,8.53
2022-11-05T10:21:59.404Z,7.97
2022-11-05T10:23:54.042Z,7.90
2022-11-05T10:25:59.161Z,8.32
2022-11-05T10:28:06.871Z,7.53
2022-11-05T10:30:15.887Z,7.25
2022-11-05T10:32:27.904Z,7.88
2022-11-05T10:34:33.663Z,7.85
2022-11-05T10:36:40.390Z,7.97
2022-11-05T10:38:43.373Z,8.10
2022-11-05T10:40:54.887Z,7.28
2022-11-05T10:43:05.266Z,6.55
2022-11-05T10:45:18.543Z,6.70
2022-11-05T10:47:40.604Z,6.90
2022-11-05T10:49:59.928Z,6.65
2022-11-05T10:52:21.681Z,6.50
2022-11-05T10:54:27.848Z,6.00
2022-11-05T10:56:37.665Z,7.43
2022-11-05T10:58:55.571Z,6.05
2022-11-05T11:01:06.103Z,5.78
2022-11-05T11:03:31.903Z,5.05
2022-11-05T11:05:37.534Z,5.72
2022-11-05T11:07:41.731Z,4.95
2022-11-05T11:09:48.433Z,5.22
2022-11-05T11:12:03.034Z,4.65
2022-11-05T11:14:20.922Z,5.38
2022-11-05T11:16:25.449Z,4.45
2022-11-05T11:18:37.331Z,5.40
2022-11-05T11:20:45.997Z,5.30
2022-11-05T11:23:04.113Z,5.35
2022-11-05T11:25:23.765Z,5.78
2022-11-05T11:27:29.717Z,5.75
2022-11-05T11:29:43.955Z,5.20
2022-11-05T11:31:49.749Z,5.10
2022-11-05T11:33:58.317Z,4.90
2022-11-05T11:36:01.614Z,4.75
2022-11-05T11:38:04.956Z,4.93
2022-11-05T11:40:16.724Z,4.70
2022-11-05T11:42:23.908Z,5.82
2022-11-05T11:44:30.097Z,4.43
2022-11-05T11:46:35.572Z,5.18
2022-11-05T11:48:41.814Z,4.07
2022-11-05T11:50:46.177Z,3.93
2022-11-05T11:52:49.110Z,4.60
2022-11-05T11:54:53.068Z,4.13
2022-11-05T11:56:56.139Z,4.00
2022-11-05T11:59:03.179Z,4.70
2022-11-05T12:01:18.209Z,4.50
2022-11-05T12:03:26.189Z,5.25
2022-11-05T12:05:36.220Z,4.03
2022-11-05T12:07:48.722Z,3.83
2022-11-05T12:10:02.120Z,4.22
2022-11-05T12:12:10.975Z,4.22
2022-11-05T12:14:24.106Z,4.80
2022-11-05T12:16:39.254Z,4.55
2022-11-05T12:18:49.962Z,4.35
2022-11-05T12:21:05.857Z,4.65
2022-11-05T12:23:36.092Z,4.18
2022-11-05T12:25:44.150Z,4.38
2022-11-05T12:28:15.918Z,2.95
2022-11-05T12:30:21.055Z,3.55
2022-11-05T12:32:35.024Z,3.60
2022-11-05T12:34:49.686Z,3.38
2022-11-05T12:37:15.315Z,3.80
2022-11-05T12:39:35.630Z,3.33
2022-11-05T12:41:46.978Z,3.63
2022-11-05T12:44:01.495Z,3.17
2022-11-05T12:46:13.463Z,2.92
2022-11-05T12:48:36.931Z,3.60
2022-11-05T12:50:45.389Z,3.42
2022-11-05T12:53:03.177Z,4.00
2022-11-05T12:55:09.576Z,3.72
2022-11-05T12:57:14.722Z,2.97
2022-11-05T12:59:22.618Z,3.47
2022-11-05T13:01:32.373Z,3.00
2022-11-05T13:03:41.220Z,3.47
2022-11-05T13:05:49.177Z,3.50
2022-11-05T13:07:58.962Z,3.40
2022-11-05T13:10:05.561Z,3.80
2022-11-05T13:12:13.368Z,3.00
2022-11-05T13:14:19.866Z,4.13
2022-11-05T13:16:27.423Z,3.17
2022-11-05T13:18:35.560Z,4.20
2022-11-05T13:20:40.673Z,3.37
2022-11-05T13:22:49.289Z,2.90
2022-11-05T13:24:55.384Z,3.33
2022-11-05T13:27:02.132Z,3.30
2022-11-05T13:29:08.416Z,3.60
2022-11-05T13:31:14.993Z,3.53
2022-11-05T13:33:22.509Z,2.87
2022-11-05T13:35:29.813Z,3.77
2022-11-05T13:37:53.391Z,3.13
2022-11-05T13:40:00.533Z,3.03
2022-11-05T13:42:45.246Z,2.97
2022-11-05T13:45:04.084Z,3.53
2022-11-05T13:47:21.493Z,3.20
2022-11-05T13:49:42.711Z,4.50
2022-11-05T13:51:59.542Z,4.00
2022-11-05T13:54:18.937Z,3.50
2022-11-05T13:56:33.431Z,3.40
2022-11-05T13:58:50.306Z,3.90
2022-11-05T14:01:03.503Z,3.63
2022-11-05T14:03:08.330Z,3.00
2022-11-05T14:05:29.061Z,3.10
2022-11-05T14:07:34.722Z,4.00
2022-11-05T14:09:41.568Z,3.60
2022-11-05T14:11:53.118Z,3.37
2022-11-05T14:13:58.461Z,3.80
2022-11-05T14:16:05.540Z,3.77
2022-11-05T14:18:39.217Z,3.90
2022-11-05T14:20:59.390Z,3.90
2022-11-05T14:23:41.996Z,3.30
2022-11-05T14:25:58.599Z,3.50
2022-11-05T14:28:06.052Z,3.50
2022-11-05T14:30:41.239Z,3.13
2022-11-05T14:32:48.642Z,3.30
2022-11-05T14:34:57.483Z,2.97
2022-11-05T14:37:15.391Z,3.40
2022-11-05T14:39:21.781Z,2.80
2022-11-05T14:41:24.939Z,2.80
2022-11-05T14:43:32.379Z,3.10
2022-11-05T14:45:37.220Z,3.50
2022-11-05T14:47:43.076Z,2.97
2022-11-05T14:49:53.212Z,3.43
2022-11-05T14:51:57.603Z,2.80
2022-11-05T14:54:03.380Z,3.10
2022-11-05T14:56:10.710Z,3.03
2022-11-05T14:58:30.281Z,3.37
2022-11-05T15:00:51.264Z,3.07
2022-11-05T15:02:57.923Z,2.90
2022-11-05T15:05:37.708Z,3.47
2022-11-05T15:07:40.988Z,3.43
2022-11-05T15:09:46.692Z,3.87
2022-11-05T15:12:02.524Z,3.00
2022-11-05T15:14:12.028Z,4.03
2022-11-05T15:16:20.763Z,3.37
2022-11-05T15:18:29.405Z,3.50
2022-11-05T15:20:40.233Z,4.00
2022-11-05T15:22:45.967Z,3.43
2022-11-05T15:24:48.982Z,3.87
2022-11-05T15:26:57.739Z,3.90
2022-11-05T15:29:00.773Z,4.00
2022-11-05T15:31:07.587Z,2.77
2022-11-05T15:33:16.207Z,3.67
2022-11-05T15:35:26.872Z,3.40
2022-11-05T15:37:30.006Z,3.77
2022-11-05T15:39:39.676Z,4.23
2022-11-05T15:41:42.826Z,4.00
2022-11-05T15:43:48.016Z,4.10
2022-11-05T15:46:02.769Z,3.90
2022-11-05T15:48:15.581Z,3.40
2022-11-05T15:50:18.606Z,3.60
2022-11-05T15:52:24.114Z,3.30
2022-11-05T15:54:31.120Z,3.80
2022-11-05T15:56:35.709Z,4.17
2022-11-05T15:58:45.681Z,3.93
2022-11-05T16:00:49.728Z,4.60
2022-11-05T16:02:55.576Z,3.57
2022-11-05T16:05:00.511Z,4.00
2022-11-05T16:07:09.574Z,3.40
2022-11-05T16:09:22.642Z,4.83
2022-11-05T16:11:27.444Z,3.20
2022-11-05T16:13:34.155Z,3.50
2022-11-05T16:15:37.235Z,3.90
2022-11-05T16:17:48.342Z,4.47
2022-11-05T16:19:52.264Z,3.70
2022-11-05T16:21:57.043Z,3.60
2022-11-05T16:24:01.082Z,3.83
2022-11-05T16:26:04.181Z,3.60
2022-11-05T16:28:19.089Z,4.93
2022-11-05T16:30:22.846Z,3.93
2022-11-05T16:32:30.808Z,3.90
2022-11-05T16:34:38.979Z,3.97
2022-11-05T16:36:42.140Z,3.10
2022-11-05T16:38:46.662Z,2.80
2022-11-05T16:40:49.572Z,3.70
2022-11-05T16:42:53.799Z,4.10
2022-11-05T16:44:56.738Z,3.60
2022-11-05T16:47:00.345Z,3.60
2022-11-05T16:49:03.637Z,3.90
2022-11-05T16:51:06.912Z,3.00
2022-11-05T16:53:09.889Z,3.40
2022-11-05T16:55:14.985Z,3.63
2022-11-05T16:57:24.534Z,3.30
2022-11-05T16:59:28.021Z,3.20
2022-11-05T17:01:31.727Z,3.33
2022-11-05T17:03:35.416Z,3.70
2022-11-05T17:05:39.097Z,3.37
2022-11-05T17:07:42.057Z,2.90
2022-11-05T17:09:48.962Z,2.70
2022-11-05T17:11:54.392Z,2.20
2022-11-05T17:13:57.792Z,3.13
2022-11-05T17:16:00.885Z,3.20
2022-11-05T17:18:05.408Z,2.77
2022-11-05T17:20:11.928Z,3.10
2022-11-05T17:22:15.058Z,2.73
2022-11-05T17:24:18.122Z,2.40
2022-11-05T17:26:21.062Z,2.50
2022-11-05T17:28:26.008Z,2.87
2022-11-05T17:30:30.452Z,2.93
2022-11-05T17:32:33.783Z,2.33
2022-11-05T17:34:37.242Z,2.50
2022-11-05T17:36:40.401Z,2.83
2022-11-05T17:38:43.756Z,2.47
2022-11-05T17:40:46.838Z,3.10
2022-11-05T17:42:50.296Z,2.30
2022-11-05T17:44:54.623Z,2.50
2022-11-05T17:46:57.829Z,2.90
2022-11-05T17:49:00.982Z,2.27
2022-11-05T17:51:04.288Z,2.83
2022-11-05T17:53:07.174Z,2.80
2022-11-05T17:55:17.236Z,2.93
2022-11-05T17:57:20.377Z,2.90
2022-11-05T17:59:23.299Z,2.50
2022-11-05T18:01:29.896Z,3.33
2022-11-05T18:03:33.035Z,2.70
2022-11-05T18:05:36.398Z,2.80
2022-11-05T18:07:39.716Z,2.50
2022-11-05T18:09:43.330Z,2.47
2022-11-05T18:11:46.336Z,2.57
2022-11-05T18:13:49.293Z,2.40
2022-11-05T18:15:53.821Z,2.47
2022-11-05T18:17:58.127Z,2.53
2022-11-05T18:20:01.047Z,2.60
2022-11-05T18:22:03.991Z,2.90
2022-11-05T18:24:08.491Z,3.57
2022-11-05T18:26:12.094Z,3.73
2022-11-05T18:28:15.118Z,3.10
2022-11-05T18:30:20.925Z,2.50
2022-11-05T18:32:24.774Z,3.30
2022-11-05T18:34:29.321Z,3.23
2022-11-05T18:36:33.111Z,3.10
2022-11-05T18:38:37.086Z,2.80
2022-11-05T18:40:40.238Z,2.60
2022-11-05T18:42:43.179Z,2.80
2022-11-05T18:44:46.217Z,3.03
2022-11-05T18:46:58.133Z,2.47
2022-11-05T18:49:02.617Z,3.30
2022-11-05T18:51:10.645Z,2.80
2022-11-05T18:53:13.713Z,3.37
2022-11-05T18:55:16.883Z,2.80
2022-11-05T18:57:19.899Z,2.90
2022-11-05T18:59:40.082Z,3.13
2022-11-05T19:01:43.520Z,3.30
2022-11-05T19:03:46.945Z,2.80
2022-11-05T19:05:50.700Z,3.47
2022-11-05T19:07:55.193Z,3.03
2022-11-05T19:09:58.069Z,3.50
2022-11-05T19:12:01.087Z,2.90
2022-11-05T19:14:03.978Z,3.23
2022-11-05T19:16:09.010Z,3.33
2022-11-05T19:18:12.374Z,3.43
2022-11-05T19:20:15.473Z,3.40
2022-11-05T19:22:22.098Z,4.20
2022-11-05T19:24:26.675Z,3.20
2022-11-05T19:26:30.180Z,3.70
2022-11-05T19:28:34.898Z,3.50
2022-11-05T19:30:38.992Z,4.27
2022-11-05T19:32:43.271Z,3.33
2022-11-05T19:34:46.158Z,3.43
2022-11-05T19:36:49.192Z,3.40
2022-11-05T19:38:57.433Z,3.30
2022-11-05T19:41:05.203Z,4.00
2022-11-05T19:43:08.107Z,3.10
2022-11-05T19:45:30.845Z,3.80
2022-11-05T19:47:34.941Z,3.47
2022-11-05T19:49:38.044Z,3.83
2022-11-05T19:51:41.072Z,3.60
2022-11-05T19:53:45.362Z,3.83
2022-11-05T19:55:48.441Z,3.37
2022-11-05T19:57:53.323Z,3.53
2022-11-05T19:59:56.667Z,3.60
2022-11-05T20:01:59.661Z,4.27
2022-11-05T20:04:03.650Z,3.63
2022-11-05T20:06:08.905Z,4.10
2022-11-05T20:08:12.064Z,4.33
2022-11-05T20:10:15.224Z,3.87
2022-11-05T20:12:18.138Z,4.37
2022-11-05T20:14:22.769Z,4.00
2022-11-05T20:16:27.979Z,3.50
2022-11-05T20:18:32.529Z,3.80
2022-11-05T20:20:35.458Z,3.53
2022-11-05T20:22:38.820Z,4.20
2022-11-05T20:24:41.771Z,4.90
2022-11-05T20:26:44.657Z,4.00
2022-11-05T20:28:47.610Z,4.83
2022-11-05T20:30:57.236Z,4.63
2022-11-05T20:33:00.172Z,5.30
2022-11-05T20:35:03.139Z,4.60
2022-11-05T20:37:06.459Z,4.57
2022-11-05T20:39:09.423Z,4.33
2022-11-05T20:41:14.496Z,4.80
2022-11-05T20:43:18.148Z,4.27
2022-11-05T20:45:21.435Z,4.97
2022-11-05T20:47:26.674Z,5.00
2022-11-05T20:49:29.938Z,5.10
2022-11-05T20:51:32.801Z,4.03
2022-11-05T20:53:36.383Z,5.17
2022-11-05T20:55:43.229Z,4.60
2022-11-05T20:57:47.989Z,4.50
2022-11-05T20:59:50.953Z,4.77
2022-11-05T21:01:55.890Z,5.20
2022-11-05T21:04:01.597Z,4.57
2022-11-05T21:06:06.390Z,4.20
2022-11-05T21:08:10.053Z,4.83
2022-11-05T21:10:13.540Z,4.53
2022-11-05T21:12:18.441Z,4.20
2022-11-05T21:14:23.235Z,4.00
2022-11-05T21:16:26.219Z,4.60
2022-11-05T21:18:31.014Z,4.70
2022-11-05T21:20:35.634Z,4.30
2022-11-05T21:22:38.557Z,5.10
2022-11-05T21:24:41.518Z,4.73
2022-11-05T21:26:44.398Z,4.53
2022-11-05T21:28:47.237Z,4.87
2022-11-05T21:30:50.479Z,4.83
2022-11-05T21:32:53.467Z,4.53
2022-11-05T21:34:56.421Z,4.20
2022-11-05T21:37:03.251Z,4.43
2022-11-05T21:39:10.548Z,4.60
2022-11-05T21:41:16.294Z,4.30
2022-11-05T21:43:19.198Z,4.67
2022-11-05T21:45:22.178Z,4.30
2022-11-05T21:47:25.198Z,4.40
2022-11-05T21:49:28.903Z,4.10
2022-11-05T21:51:49.220Z,4.47
2022-11-05T21:54:10.923Z,4.43
2022-11-05T21:56:37.356Z,5.20
2022-11-05T21:59:00.827Z,4.63
2022-11-05T22:01:03.974Z,4.97
2022-11-05T22:03:06.910Z,5.57
2022-11-05T22:05:10.165Z,5.23
2022-11-05T22:07:15.681Z,5.27
2022-11-05T22:09:25.150Z,5.73
2022-11-05T22:11:28.079Z,4.60
2022-11-05T22:13:30.984Z,4.73
2022-11-05T22:15:33.932Z,5.20
2022-11-05T22:17:36.829Z,5.17
2022-11-05T22:19:41.059Z,4.93
2022-11-05T22:21:43.994Z,5.30
2022-11-05T22:23:47.558Z,4.70
2022-11-05T22:25:51.955Z,4.83
2022-11-05T22:27:55.017Z,5.10
2022-11-05T22:29:57.935Z,4.53
2022-11-05T22:32:03.491Z,4.83
2022-11-05T22:34:07.418Z,6.00
2022-11-05T22:36:11.099Z,4.93
2022-11-05T22:38:16.287Z,5.20
2022-11-05T22:40:22.213Z,4.20
2022-11-05T22:42:28.351Z,4.83
2022-11-05T22:44:31.274Z,4.60
2022-11-05T22:46:34.337Z,5.07
2022-11-05T22:48:37.953Z,4.93
2022-11-05T22:50:42.076Z,4.73
2022-11-05T22:52:44.941Z,4.27
2022-11-05T22:54:48.484Z,4.50
2022-11-05T22:56:53.055Z,5.23
2022-11-05T22:58:58.022Z,4.10
2022-11-05T23:01:01.603Z,4.37
2022-11-05T23:03:04.820Z,5.90
2022-11-05T23:05:08.293Z,4.47
2022-11-05T23:07:28.966Z,4.63
2022-11-05T23:09:51.376Z,4.60
2022-11-05T23:11:57.325Z,4.13
2022-11-05T23:14:01.639Z,4.97
2022-11-05T23:16:22.361Z,4.30
2022-11-05T23:18:42.950Z,4.87
2022-11-05T23:21:04.463Z,5.00
2022-11-05T23:23:28.680Z,4.50
2022-11-05T23:25:31.714Z,5.30
2022-11-05T23:27:38.649Z,5.70
2022-11-05T23:29:42.932Z,4.53
2022-11-05T23:32:05.102Z,5.00
2022-11-05T23:34:10.563Z,5.03
2022-11-05T23:36:34.086Z,5.30
2022-11-05T23:38:48.643Z,5.07
2022-11-05T23:41:14.563Z,5.47
2022-11-05T23:43:35.697Z,5.77
2022-11-05T23:45:58.572Z,6.20
2022-11-05T23:48:19.341Z,6.00
2022-11-05T23:50:25.626Z,6.23
2022-11-05T23:52:28.474Z,5.80
2022-11-05T23:54:31.322Z,6.53
2022-11-05T23:56:38.317Z,5.70
2022-11-05T23:58:42.394Z,5.83
